This is the latest recevied weather packets stored in our database for station/object OK5TVR-5. If no packets are shown the sender has not sent any weather packets the latest 10 day(s).
| Time | Temp. | Humidity | Pressure | Rain* | Wind** | Luminosity | Snow |
|---|---|---|---|---|---|---|---|
| 1788198567 | 20.56° C | 56% | - | 0 mm | - | 2 W/m² | - |
| 1788198567 | 20.56° C | 56% | - | 0 mm | - | 2 W/m² | - |
| 1788198563 | 20.56° C | 56% | 1008.5 hPa | 0 mm | - | 2 W/m² | - |
| 1788197664 | 21.11° C | 54% | 1008.3 hPa | 0 mm | - | 4 W/m² | - |
| 1788196763 | 21.67° C | 51% | 1008 hPa | 0 mm | - | 11 W/m² | - |
| 1788195863 | 22.22° C | 49% | 1008.1 hPa | 0 mm | - | 20 W/m² | - |
| 1788194963 | 23.33° C | 49% | 1007.7 hPa | 0 mm | - | 28 W/m² | - |
| 1788194063 | 23.33° C | 48% | 1007.7 hPa | 0 mm | - | 36 W/m² | - |
| 1788193163 | 23.33° C | 46% | 1007.7 hPa | 0 mm | - | 44 W/m² | - |
| 1788192263 | 23.33° C | 44% | 1007.6 hPa | 0 mm | - | 53 W/m² | - |
| 1788191363 | 23.89° C | 45% | 1007.6 hPa | 0 mm | - | 63 W/m² | - |
| 1788190463 | 23.89° C | 45% | 1007.6 hPa | 0 mm | - | 71 W/m² | - |
| 1788189562 | 23.33° C | 44% | 1007.8 hPa | 0 mm | - | 98 W/m² | - |
| 1788188672 | 23.33° C | 44% | 1007.9 hPa | 0 mm | - | 108 W/m² | - |
| 1788187767 | 22.78° C | 46% | 1008.3 hPa | 0 mm | - | 75 W/m² | - |
| 1788186862 | 23.89° C | 45% | 1007.9 hPa | 0 mm | - | 114 W/m² | - |
| 1788185962 | 23.89° C | 45% | 1008.2 hPa | 0 mm | - | 118 W/m² | - |
| 1788185062 | 23.89° C | 47% | 1008.1 hPa | 0 mm | - | 131 W/m² | - |
| 1788183565 | 23.33° C | 50% | 1008.1 hPa | 0 mm | - | 150 W/m² | - |
| 1788182665 | 23.33° C | 49% | 1008.2 hPa | 0 mm | - | 41 W/m² | - |
| 1788181765 | 22.78° C | 53% | 1008.4 hPa | 0 mm | - | 46 W/m² | - |
| 1788180869 | 21.67° C | - | - | - | - | - | - |
| 1788180865 | 21.67° C | 53% | 1008.5 hPa | 0 mm | - | 71 W/m² | - |
| 1788180865 | 21.67° C | - | - | - | - | - | - |
| 1788179969 | 22.78° C | 54% | 1008.1 hPa | 0 mm | - | 223 W/m² | - |
* Rain latest hour (hover to see other rain measurements)
** Current wind speed in m/s (hover to see current wind gust speed)